Time;durP1;ratioP1;P1;durP2;ratioP2;P2;SDS_P1;SDS_P2;PMS_P1;PMS_P2;Temp;Humidity;BMP_temperature;BMP_pressure;BME280_temperature;BME280_humidity;BME280_pressure;Samples;Min_cycle;Max_cycle;Signal;HPM_P1;HPM_P2
2022/09/14 00:01:26;;;;;;;2.38;2.17;;;;;;;21.89;86.75;95855.66;4908134;29;20226;-55
2022/09/14 00:03:54;;;;;;;3.28;1.90;;;;;;;21.82;87.34;95845.81;4920716;29;20215;-55
2022/09/14 00:06:20;;;;;;;3.65;1.63;;;;;;;21.78;89.46;95849.22;4919704;29;20326;-56
2022/09/14 00:08:50;;;;;;;2.25;1.67;;;;;;;21.70;91.85;95847.66;4919746;29;20222;-55
2022/09/14 00:11:17;;;;;;;3.58;1.85;;;;;;;21.64;93.24;95843.22;4919540;29;20545;-56
2022/09/14 00:13:45;;;;;;;2.03;1.67;;;;;;;21.58;93.93;95844.13;4919961;29;20219;-56
2022/09/14 00:16:14;;;;;;;1.95;1.80;;;;;;;21.50;95.34;95849.03;4918806;29;20212;-55
2022/09/14 00:18:43;;;;;;;2.30;1.83;;;;;;;21.44;95.66;95852.63;4915687;29;20299;-55
2022/09/14 00:21:11;;;;;;;2.20;2.00;;;;;;;21.37;97.23;95841.97;4909589;29;20271;-56
2022/09/14 00:23:40;;;;;;;2.00;1.80;;;;;;;21.30;98.45;95838.56;4919950;29;20294;-56
2022/09/14 00:26:08;;;;;;;3.00;1.98;;;;;;;21.24;99.16;95844.84;4920467;29;20298;-54
2022/09/14 00:28:37;;;;;;;2.10;1.60;;;;;;;21.18;99.71;95849.28;4922612;29;20211;-55
2022/09/14 00:31:04;;;;;;;4.28;1.75;;;;;;;21.11;98.18;95843.19;4919046;29;20327;-55
2022/09/14 00:33:30;;;;;;;2.33;2.03;;;;;;;21.16;97.52;95842.47;4925814;29;20291;-57
2022/09/14 00:36:08;;;;;;;5.75;1.50;;;;;;;21.07;97.30;95835.75;4929983;29;20240;-56
2022/09/14 00:38:35;;;;;;;3.22;1.85;;;;;;;21.09;97.15;95844.41;4931157;29;20214;-57
2022/09/14 00:41:03;;;;;;;2.15;1.67;;;;;;;21.04;98.56;95841.59;4931298;29;20219;-56
2022/09/14 00:43:29;;;;;;;3.75;2.08;;;;;;;21.04;97.23;95841.59;4919694;29;20259;-54
2022/09/14 00:45:56;;;;;;;1.85;1.75;;;;;;;20.99;97.54;95838.75;4918280;29;20212;-54
2022/09/14 00:48:27;;;;;;;2.00;1.90;;;;;;;20.97;97.86;95835.50;4918076;29;20243;-55
2022/09/14 00:50:54;;;;;;;1.70;1.60;;;;;;;20.95;98.69;95834.88;4918133;29;20206;-55
2022/09/14 00:53:22;;;;;;;3.42;1.98;;;;;;;20.89;100.00;95838.50;4917782;29;20227;-54
2022/09/14 00:55:50;;;;;;;1.80;1.70;;;;;;;20.86;99.84;95834.41;4918142;29;20534;-55
2022/09/14 00:58:16;;;;;;;3.83;2.10;;;;;;;20.84;99.58;95831.91;4917874;29;20647;-56
2022/09/14 01:00:43;;;;;;;1.83;1.73;;;;;;;20.84;100.00;95826.53;4917999;29;20552;-57
2022/09/14 01:03:09;;;;;;;2.10;2.00;;;;;;;20.85;99.62;95828.19;4917984;29;20299;-54
2022/09/14 01:05:47;;;;;;;1.77;1.63;;;;;;;20.97;92.09;95825.56;4917805;29;20629;-56
2022/09/14 01:08:28;;;;;;;1.55;1.45;;;;;;;21.03;92.81;95829.19;4917878;29;20605;-55
2022/09/14 01:11:05;;;;;;;4.65;2.05;;;;;;;21.10;91.30;95825.41;4917861;29;20605;-56
2022/09/14 01:13:38;;;;;;;1.95;1.83;;;;;;;21.20;88.06;95831.06;4918081;29;20298;-55
2022/09/14 01:16:11;;;;;;;1.73;1.63;;;;;;;21.32;86.16;95828.41;4917570;29;20250;-56
2022/09/14 01:18:43;;;;;;;1.75;1.60;;;;;;;21.44;84.31;95831.94;4918000;29;20275;-56
2022/09/14 01:21:12;;;;;;;3.03;1.90;;;;;;;21.59;83.77;95832.31;4917334;29;20220;-56
2022/09/14 01:23:44;;;;;;;1.98;1.73;;;;;;;21.70;82.90;95831.53;4917592;29;20258;-55
2022/09/14 01:26:40;;;;;;;1.70;1.60;;;;;;;21.80;81.81;95839.03;4921585;29;20215;-55
2022/09/14 01:29:15;;;;;;;4.43;2.15;;;;;;;21.86;81.09;95838.09;4910926;29;20620;-56
2022/09/14 01:31:47;;;;;;;1.77;1.67;;;;;;;21.93;80.93;95829.94;4908814;29;20242;-54
2022/09/14 01:34:18;;;;;;;4.35;1.95;;;;;;;22.01;79.77;95826.88;4912712;29;20239;-57
2022/09/14 01:36:55;;;;;;;1.55;1.33;;;;;;;22.10;78.53;95834.41;4921320;29;20295;-54
2022/09/14 01:39:22;;;;;;;2.80;1.73;;;;;;;22.23;76.76;95825.25;4921092;29;20660;-54
2022/09/14 01:41:50;;;;;;;2.45;1.50;;;;;;;22.28;76.97;95823.47;4921080;29;20569;-55
2022/09/14 01:44:22;;;;;;;1.63;1.40;;;;;;;22.33;76.80;95822.78;4914556;29;20244;-54
2022/09/14 01:46:51;;;;;;;2.30;1.80;;;;;;;22.39;76.41;95824.53;4908681;29;20226;-54
2022/09/14 01:49:21;;;;;;;2.80;1.58;;;;;;;22.44;76.35;95823.81;4921217;29;20203;-56
2022/09/14 01:51:50;;;;;;;2.58;1.80;;;;;;;22.47;76.18;95837.63;4921125;29;20212;-55
2022/09/14 01:54:19;;;;;;;2.35;2.03;;;;;;;;;;4920499;29;20295;-56
2022/09/14 01:56:52;;;;;;;4.65;2.05;;;;;;;22.53;76.00;95844.75;4920477;29;20628;-56
2022/09/14 01:59:23;;;;;;;1.85;1.67;;;;;;;22.66;74.33;95831.06;4921060;29;20200;-55
2022/09/14 02:01:52;;;;;;;2.00;1.90;;;;;;;22.71;74.08;95841.13;4920875;29;20200;-55
2022/09/14 02:04:23;;;;;;;1.85;1.60;;;;;;;22.70;74.47;95837.63;4920779;29;20216;-54
2022/09/14 02:06:50;;;;;;;1.95;1.63;;;;;;;22.73;74.42;95831.75;4920574;29;20308;-56
2022/09/14 02:09:20;;;;;;;3.90;1.63;;;;;;;22.72;74.67;95838.22;4920825;29;20291;-56
2022/09/14 02:11:47;;;;;;;3.83;1.92;;;;;;;22.73;74.54;95833.63;4920754;29;20208;-56
2022/09/14 02:14:13;;;;;;;1.90;1.65;;;;;;;22.70;75.26;95839.50;4920761;29;20401;-55
2022/09/14 02:16:44;;;;;;;2.08;1.90;;;;;;;22.70;75.03;95840.34;4920180;29;20697;-55
2022/09/14 02:19:12;;;;;;;3.58;1.83;;;;;;;22.68;75.66;95828.94;4908583;29;20204;-56
2022/09/14 02:21:41;;;;;;;1.77;1.63;;;;;;;22.64;75.90;95826.94;4920179;29;20222;-55
2022/09/14 02:24:08;;;;;;;1.75;1.60;;;;;;;22.58;76.63;95839.50;4920198;29;20218;-56
2022/09/14 02:26:35;;;;;;;3.25;1.90;;;;;;;22.51;77.90;95838.81;4920149;29;20328;-55
2022/09/14 02:29:02;;;;;;;4.05;1.80;;;;;;;22.48;78.57;95833.88;4920185;29;20211;-55
2022/09/14 02:31:35;;;;;;;2.78;2.10;;;;;;;22.46;78.91;95837.88;4920273;29;20243;-56
2022/09/14 02:34:08;;;;;;;2.60;2.15;;;;;;;22.41;78.47;95833.19;4920717;29;20299;-56
2022/09/14 02:36:41;;;;;;;4.00;1.95;;;;;;;22.47;78.07;95832.25;4920612;29;20246;-55
2022/09/14 02:39:17;;;;;;;2.65;1.80;;;;;;;22.39;78.69;95829.91;4922372;29;20292;-56
2022/09/14 02:41:50;;;;;;;2.80;2.00;;;;;;;22.36;79.09;95838.47;4921234;29;20213;-55
2022/09/14 02:44:20;;;;;;;3.05;2.03;;;;;;;22.34;78.97;95843.28;4919953;29;20247;-55
2022/09/14 02:46:55;;;;;;;3.45;2.03;;;;;;;22.36;79.51;95849.25;4920231;29;20301;-56
2022/09/14 02:49:27;;;;;;;2.58;2.00;;;;;;;22.34;79.52;95848.66;4919583;29;20640;-57
2022/09/14 02:51:58;;;;;;;4.80;1.90;;;;;;;22.33;79.78;95833.56;4920152;29;20299;-55
2022/09/14 02:54:29;;;;;;;2.60;1.85;;;;;;;22.29;79.97;95835.91;4920046;29;20258;-55
2022/09/14 02:57:00;;;;;;;3.65;2.00;;;;;;;22.28;80.34;95834.25;4920024;29;20222;-56
2022/09/14 02:59:26;;;;;;;2.50;1.80;;;;;;;22.28;80.27;95828.06;4917199;29;20282;-56
2022/09/14 03:01:53;;;;;;;2.83;1.90;;;;;;;22.29;80.21;95827.81;4920039;29;20208;-55
2022/09/14 03:04:19;;;;;;;2.25;2.05;;;;;;;22.24;80.89;95827.72;4919473;29;20700;-55
2022/09/14 03:06:48;;;;;;;3.63;2.20;;;;;;;22.18;82.52;95825.13;4919742;29;20290;-55
2022/09/14 03:09:15;;;;;;;3.28;2.13;;;;;;;22.14;82.57;95823.97;4919181;29;20295;-55
2022/09/14 03:11:41;;;;;;;3.50;2.20;;;;;;;22.08;83.54;95806.06;4919556;29;20208;-56
2022/09/14 03:14:09;;;;;;;5.78;2.15;;;;;;;22.00;84.71;95801.84;4919448;29;20295;-55
2022/09/14 03:16:37;;;;;;;4.35;2.28;;;;;;;21.96;85.03;95803.38;4919532;29;20258;-56
2022/09/14 03:19:04;;;;;;;3.42;1.77;;;;;;;21.98;84.33;95808.50;4919342;29;20262;-54
2022/09/14 03:21:31;;;;;;;3.22;1.95;;;;;;;21.95;84.07;95803.59;4919533;29;20207;-56
2022/09/14 03:23:59;;;;;;;2.20;1.92;;;;;;;21.95;83.71;95806.28;4906935;29;20294;-56
2022/09/14 03:26:27;;;;;;;4.40;2.00;;;;;;;21.88;85.81;95811.75;4919501;29;20215;-54
2022/09/14 03:28:55;;;;;;;3.38;2.00;;;;;;;21.83;86.78;95809.75;4918901;29;20243;-54
2022/09/14 03:31:22;;;;;;;4.13;2.28;;;;;;;21.80;86.84;95825.56;4919429;29;20298;-54
2022/09/14 03:33:52;;;;;;;2.63;1.80;;;;;;;21.72;88.06;95834.78;4919317;29;20290;-56
2022/09/14 03:36:19;;;;;;;2.03;1.85;;;;;;;21.67;88.42;95825.78;4919575;29;20219;-54
2022/09/14 03:38:48;;;;;;;2.15;1.95;;;;;;;21.59;90.21;95828.81;4919097;29;20302;-55
2022/09/14 03:41:16;;;;;;;3.03;1.85;;;;;;;21.50;91.95;95831.03;4919203;29;20303;-56
2022/09/14 03:43:43;;;;;;;2.92;2.03;;;;;;;21.43;93.53;95835.69;4919004;29;20240;-56
2022/09/14 03:46:12;;;;;;;2.70;2.13;;;;;;;21.36;94.10;95834.97;4918609;29;20252;-56
2022/09/14 03:48:39;;;;;;;2.50;2.20;;;;;;;21.30;94.24;95828.63;4918891;29;20259;-56
2022/09/14 03:51:07;;;;;;;5.15;1.95;;;;;;;21.25;95.42;95827.69;4919031;29;20298;-54
2022/09/14 03:53:35;;;;;;;5.65;2.20;;;;;;;21.21;94.53;95821.13;4918943;29;20219;-56
2022/09/14 03:56:06;;;;;;;2.33;2.13;;;;;;;21.17;95.49;95823.44;4902473;29;20218;-55
2022/09/14 03:58:34;;;;;;;6.35;2.15;;;;;;;21.15;95.70;95819.34;4918911;29;20200;-55
2022/09/14 04:01:04;;;;;;;2.50;2.30;;;;;;;21.11;95.84;95820.84;4918335;29;20218;-54
2022/09/14 04:03:31;;;;;;;2.30;2.10;;;;;;;21.09;95.75;95812.16;4918642;29;20408;-54
2022/09/14 04:05:58;;;;;;;4.03;2.40;;;;;;;21.03;96.44;95805.84;4918251;29;20222;-54
2022/09/14 04:08:24;;;;;;;3.13;2.17;;;;;;;20.99;97.40;95807.34;4918769;29;20330;-54
2022/09/14 04:10:51;;;;;;;2.75;2.33;;;;;;;20.95;97.67;95806.13;4918809;29;20319;-56
2022/09/14 04:13:18;;;;;;;2.20;2.10;;;;;;;20.89;98.87;95798.19;4920638;29;20302;-54
2022/09/14 04:15:56;;;;;;;2.17;1.98;;;;;;;20.84;100.00;95804.22;4920155;29;20303;-56
2022/09/14 04:18:22;;;;;;;2.40;2.20;;;;;;;20.80;100.00;95806.53;4920900;29;20207;-55
2022/09/14 04:20:57;;;;;;;5.93;2.58;;;;;;;20.76;100.00;95801.88;4903590;29;20211;-57
2022/09/14 04:23:24;;;;;;;6.07;4.40;;;;;;;20.71;100.00;95805.22;4920187;29;20290;-56
2022/09/14 04:25:51;;;;;;;4.45;3.38;;;;;;;20.69;100.00;95801.13;4919645;29;20287;-55
2022/09/14 04:28:18;;;;;;;4.15;3.00;;;;;;;20.64;100.00;95799.13;4920125;29;20259;-55
2022/09/14 04:30:54;;;;;;;2.40;2.20;;;;;;;20.55;100.00;95805.81;4917989;29;20239;-55
2022/09/14 04:33:21;;;;;;;2.97;2.47;;;;;;;20.52;100.00;95800.91;4918107;29;20287;-54
2022/09/14 04:35:56;;;;;;;3.13;2.35;;;;;;;20.46;100.00;95804.50;4918205;29;20298;-55
2022/09/14 04:38:23;;;;;;;2.58;2.40;;;;;;;20.40;100.00;95807.28;4900856;29;20275;-55
2022/09/14 04:40:49;;;;;;;3.17;2.28;;;;;;;20.38;100.00;95803.97;4901406;29;20696;-55
2022/09/14 04:43:16;;;;;;;2.78;2.30;;;;;;;20.30;100.00;95791.66;4917822;29;20243;-54
2022/09/14 04:45:43;;;;;;;5.65;2.60;;;;;;;20.29;100.00;95806.16;4918050;29;20303;-54
2022/09/14 04:48:11;;;;;;;4.35;2.38;;;;;;;20.22;100.00;95794.63;4905276;29;20224;-54
2022/09/14 04:50:37;;;;;;;2.50;2.30;;;;;;;20.17;100.00;95795.28;4917839;29;20201;-55
2022/09/14 04:53:04;;;;;;;6.18;3.03;;;;;;;20.16;100.00;95795.50;4920045;29;20239;-54
2022/09/14 04:55:31;;;;;;;4.00;2.47;;;;;;;20.09;100.00;95789.38;4929853;29;20275;-52
2022/09/14 04:57:57;;;;;;;3.90;2.72;;;;;;;20.08;100.00;95793.13;4920162;29;20299;-59
2022/09/14 05:00:25;;;;;;;4.90;2.60;;;;;;;20.06;100.00;95790.66;4921842;29;20243;-66
2022/09/14 05:02:51;;;;;;;3.70;2.45;;;;;;;20.02;100.00;95789.47;4921968;29;20215;-53
2022/09/14 05:05:19;;;;;;;3.13;2.45;;;;;;;20.02;100.00;95796.69;4921816;29;20243;-53
2022/09/14 05:07:46;;;;;;;3.15;2.28;;;;;;;19.99;100.00;95786.41;4921135;29;20214;-54
2022/09/14 05:10:13;;;;;;;5.68;2.58;;;;;;;19.96;100.00;95794.91;4921216;29;20290;-54
2022/09/14 05:12:39;;;;;;;3.13;2.30;;;;;;;19.96;100.00;95794.91;4919762;29;21044;-53
2022/09/14 05:15:07;;;;;;;2.60;2.40;;;;;;;19.92;100.00;95782.97;4920374;29;20207;-53
2022/09/14 05:17:34;;;;;;;3.33;2.42;;;;;;;19.92;100.00;95780.28;4920212;29;20204;-54
2022/09/14 05:20:02;;;;;;;6.75;3.03;;;;;;;19.92;100.00;95789.16;4921444;29;20219;-55
2022/09/14 05:22:30;;;;;;;2.75;2.55;;;;;;;19.90;100.00;95793.13;4911567;29;20212;-54
2022/09/14 05:24:56;;;;;;;3.78;2.80;;;;;;;19.93;100.00;95801.53;4920232;29;20315;-59
2022/09/14 05:27:23;;;;;;;4.25;2.28;;;;;;;19.91;100.00;95794.75;4921841;29;20685;-55
2022/09/14 05:29:50;;;;;;;4.45;2.47;;;;;;;19.90;100.00;95803.84;4922178;29;20315;-54
2022/09/14 05:32:16;;;;;;;3.17;2.58;;;;;;;19.92;100.00;95807.13;4921897;29;20605;-55
2022/09/14 05:34:43;;;;;;;2.83;2.50;;;;;;;19.92;100.00;95804.44;4921957;29;20210;-55
2022/09/14 05:37:11;;;;;;;3.08;2.80;;;;;;;19.92;100.00;95799.88;4921762;29;20295;-56
2022/09/14 05:39:39;;;;;;;4.38;2.88;;;;;;;19.95;100.00;95806.66;4921784;29;20543;-54
2022/09/14 05:42:06;;;;;;;5.55;4.60;;;;;;;19.96;100.00;95802.94;4921971;29;20240;-56
2022/09/14 05:44:32;;;;;;;5.93;4.32;;;;;;;19.95;100.00;95788.72;4921028;29;20271;-56
2022/09/14 05:47:00;;;;;;;6.30;4.10;;;;;;;19.98;100.00;95792.84;4921310;29;20216;-55
2022/09/14 05:49:27;;;;;;;6.72;4.45;;;;;;;19.99;100.00;95792.59;4920714;29;20307;-56
2022/09/14 05:51:53;;;;;;;44.00;39.50;;;;;;;20.04;100.00;95790.06;4921131;29;20218;-55
2022/09/14 05:54:20;;;;;;;16.30;13.88;;;;;;;20.07;100.00;95781.56;4920942;29;20306;-55
2022/09/14 05:56:48;;;;;;;10.75;9.32;;;;;;;20.14;100.00;95776.13;4920954;29;20306;-56
2022/09/14 05:59:15;;;;;;;2.95;2.70;;;;;;;20.24;100.00;95787.16;4921030;29;20245;-55
2022/09/14 06:01:42;;;;;;;3.10;2.33;;;;;;;20.33;99.52;95777.81;4920926;29;20208;-54
2022/09/14 06:04:10;;;;;;;2.53;2.30;;;;;;;20.43;98.99;95778.09;4920709;29;20199;-56
2022/09/14 06:06:38;;;;;;;2.78;2.50;;;;;;;20.50;99.90;95780.69;4920500;29;20299;-55
2022/09/14 06:09:05;;;;;;;2.70;2.50;;;;;;;20.52;100.00;95786.66;4919893;29;20768;-56
2022/09/14 06:11:35;;;;;;;3.00;2.58;;;;;;;20.55;100.00;95784.34;4920675;29;20291;-57
2022/09/14 06:14:04;;;;;;;3.10;2.45;;;;;;;20.55;100.00;95787.03;4921477;29;20219;-54
2022/09/14 06:16:30;;;;;;;3.67;2.55;;;;;;;20.55;100.00;95781.66;4920485;29;20633;-56
2022/09/14 06:18:58;;;;;;;2.88;2.63;;;;;;;20.58;100.00;95791.16;4920569;29;20238;-55
2022/09/14 06:21:28;;;;;;;5.75;2.65;;;;;;;20.58;100.00;95780.41;4920826;29;20286;-56
2022/09/14 06:23:55;;;;;;;3.10;2.80;;;;;;;20.56;100.00;95783.31;4920704;29;20291;-56
2022/09/14 06:26:21;;;;;;;4.07;2.95;;;;;;;20.56;100.00;95780.63;4920706;29;20208;-54
2022/09/14 06:28:48;;;;;;;2.95;2.67;;;;;;;20.56;100.00;95787.84;4920223;29;20744;-56
2022/09/14 06:31:21;;;;;;;4.85;2.88;;;;;;;20.56;100.00;95791.34;4920510;29;20207;-56
2022/09/14 06:33:48;;;;;;;4.72;2.65;;;;;;;20.56;100.00;95804.78;4908644;29;20267;-55
2022/09/14 06:36:18;;;;;;;2.97;2.65;;;;;;;20.55;100.00;95808.50;4920437;29;20208;-55
2022/09/14 06:38:45;;;;;;;3.88;2.28;;;;;;;20.54;100.00;95809.59;4920226;29;20251;-55
2022/09/14 06:41:17;;;;;;;3.00;2.63;;;;;;;20.54;100.00;95814.13;4920486;29;20295;-56
2022/09/14 06:43:44;;;;;;;4.32;2.40;;;;;;;20.55;100.00;95819.25;4937661;29;20266;-57
2022/09/14 06:46:13;;;;;;;4.13;2.47;;;;;;;20.54;100.00;95827.56;4938240;29;20238;-57
2022/09/14 06:48:43;;;;;;;3.20;2.38;;;;;;;20.55;100.00;95821.94;4936873;29;20302;-55
2022/09/14 06:51:18;;;;;;;5.45;2.72;;;;;;;20.56;100.00;95826.28;4920487;29;20287;-56
2022/09/14 06:53:46;;;;;;;3.53;2.63;;;;;;;20.60;100.00;95814.03;4919846;29;20581;-55
2022/09/14 06:56:13;;;;;;;2.95;2.33;;;;;;;20.65;100.00;95813.38;4919964;29;20218;-55
2022/09/14 06:58:39;;;;;;;2.50;2.30;;;;;;;20.68;100.00;95805.69;4919994;29;20299;-56
2022/09/14 07:01:08;;;;;;;3.45;2.42;;;;;;;20.76;100.00;95818.00;4919716;29;20208;-56
2022/09/14 07:03:37;;;;;;;3.15;2.20;;;;;;;20.87;94.15;95821.78;4920194;29;20215;-55
2022/09/14 07:06:07;;;;;;;2.92;1.98;;;;;;;20.96;91.89;95817.72;4921229;29;20219;-56
2022/09/14 07:08:34;;;;;;;2.78;2.33;;;;;;;21.03;92.05;95824.66;4922867;29;20307;-55
2022/09/14 07:11:01;;;;;;;2.38;1.98;;;;;;;21.11;92.10;95831.59;4923056;29;20295;-56
2022/09/14 07:13:29;;;;;;;2.20;2.00;;;;;;;21.17;91.83;95833.38;4928215;29;20214;-54
2022/09/14 07:15:56;;;;;;;3.72;2.10;;;;;;;21.30;87.47;95830.50;4929986;29;20212;-57
2022/09/14 07:18:27;;;;;;;3.70;2.00;;;;;;;21.36;88.31;95832.28;4930607;29;20222;-56
2022/09/14 07:20:54;;;;;;;2.53;2.33;;;;;;;21.41;88.28;95836.94;4937139;29;20192;-56
2022/09/14 07:23:22;;;;;;;2.33;2.13;;;;;;;21.46;87.46;95832.53;4921669;29;20223;-55
2022/09/14 07:26:00;;;;;;;3.22;2.20;;;;;;;21.56;87.28;95842.72;4919678;29;20295;-55
2022/09/14 07:28:27;;;;;;;3.67;2.05;;;;;;;21.63;85.97;95830.81;4919319;29;20226;-55
2022/09/14 07:30:53;;;;;;;3.17;2.10;;;;;;;21.70;85.17;95836.91;4919476;29;20204;-56
2022/09/14 07:33:20;;;;;;;3.22;2.13;;;;;;;21.79;84.93;95835.50;4916474;29;20602;-56
2022/09/14 07:35:46;;;;;;;2.92;2.20;;;;;;;21.86;85.47;95839.97;4909573;29;20239;-57
2022/09/14 07:38:13;;;;;;;2.65;1.80;;;;;;;21.95;84.51;95823.28;4918134;29;20298;-54
2022/09/14 07:40:41;;;;;;;7.07;2.80;;;;;;;22.03;84.25;95835.56;4920336;29;20211;-56
2022/09/14 07:43:08;;;;;;;4.18;2.53;;;;;;;22.11;83.41;95837.88;4920098;29;20424;-57
2022/09/14 07:45:35;;;;;;;2.78;2.30;;;;;;;22.19;82.84;95848.31;4920343;29;20676;-55
2022/09/14 07:48:02;;;;;;;4.03;2.50;;;;;;;22.23;83.12;95836.03;4920297;29;20345;-56
2022/09/14 07:50:29;;;;;;;3.75;2.15;;;;;;;22.27;82.69;95843.41;4916369;29;20322;-55
2022/09/14 07:52:55;;;;;;;2.20;2.00;;;;;;;22.36;81.57;95845.72;4921383;29;20250;-56
2022/09/14 07:55:22;;;;;;;3.67;2.33;;;;;;;22.36;80.87;95857.31;4919957;29;20254;-55
2022/09/14 07:57:54;;;;;;;3.75;2.20;;;;;;;22.38;80.28;95866.00;4919788;29;20774;-55
2022/09/14 08:00:21;;;;;;;2.67;2.13;;;;;;;22.41;79.66;95881.69;4919992;29;20203;-56
2022/09/14 08:02:52;;;;;;;2.97;1.90;;;;;;;22.41;79.40;95878.19;4919226;29;20226;-56
2022/09/14 08:05:19;;;;;;;5.32;2.50;;;;;;;22.39;81.47;95883.78;4920560;29;20196;-56
2022/09/14 08:07:45;;;;;;;4.38;2.28;;;;;;;22.40;81.27;95890.81;4918897;29;20573;-57
2022/09/14 08:10:12;;;;;;;3.95;2.08;;;;;;;22.45;80.48;95892.81;4918825;29;20322;-57
2022/09/14 08:12:39;;;;;;;4.28;2.25;;;;;;;22.47;80.93;95896.09;4918658;29;20250;-56
2022/09/14 08:15:10;;;;;;;5.70;2.20;;;;;;;22.46;81.69;95908.72;4918692;29;20553;-56
2022/09/14 08:17:37;;;;;;;2.30;2.10;;;;;;;22.47;82.77;95901.47;4918520;29;20212;-56
2022/09/14 08:20:05;;;;;;;4.38;2.45;;;;;;;22.49;81.81;95905.59;4918508;29;20235;-55
2022/09/14 08:22:31;;;;;;;4.90;2.25;;;;;;;22.55;81.09;95909.22;4918606;29;20211;-55
2022/09/14 08:24:58;;;;;;;3.40;2.10;;;;;;;22.60;81.37;95912.81;4918298;29;20246;-55
2022/09/14 08:27:25;;;;;;;5.30;2.28;;;;;;;22.67;80.25;95918.94;4918163;29;20300;-57
2022/09/14 08:29:51;;;;;;;3.78;2.22;;;;;;;22.80;80.84;95929.50;4918342;29;20323;-56
2022/09/14 08:32:21;;;;;;;4.78;2.30;;;;;;;22.90;80.84;95928.06;4917834;29;20203;-55
2022/09/14 08:34:48;;;;;;;4.72;2.38;;;;;;;22.95;80.26;95926.31;4918319;29;20615;-55
2022/09/14 08:37:14;;;;;;;3.63;2.15;;;;;;;22.98;81.14;95938.50;4918377;29;20242;-57
2022/09/14 08:39:41;;;;;;;3.28;1.80;;;;;;;23.02;79.89;95940.50;4918099;29;20649;-56
2022/09/14 08:42:11;;;;;;;4.05;2.28;;;;;;;22.99;80.23;95937.44;4918217;29;20226;-54
2022/09/14 08:44:43;;;;;;;4.93;2.40;;;;;;;23.08;80.00;95927.91;4917891;29;20239;-56
2022/09/14 08:47:11;;;;;;;4.35;2.08;;;;;;;23.10;80.33;95912.28;4918155;29;20207;-56
2022/09/14 08:49:46;;;;;;;2.38;2.17;;;;;;;23.13;80.35;95907.25;4901140;29;20231;-55
2022/09/14 08:52:22;;;;;;;6.05;2.33;;;;;;;23.13;80.75;95909.16;4918400;29;20286;-56
2022/09/14 08:54:52;;;;;;;5.15;2.63;;;;;;;23.21;81.41;95897.97;4917863;29;20629;-56
2022/09/14 08:57:25;;;;;;;2.78;2.20;;;;;;;23.29;80.05;95900.28;4917955;29;20215;-55
2022/09/14 08:59:55;;;;;;;4.35;2.22;;;;;;;23.35;80.35;95895.81;4899378;29;20212;-56
2022/09/14 09:02:36;;;;;;;3.85;2.40;;;;;;;23.36;79.92;95883.94;4912869;29;20210;-55
2022/09/14 09:05:22;;;;;;;2.83;2.35;;;;;;;23.44;81.37;95886.31;4918227;29;20196;-54
2022/09/14 09:07:56;;;;;;;2.35;2.10;;;;;;;23.50;80.07;95875.34;4918177;29;20287;-56
2022/09/14 09:10:25;;;;;;;6.70;2.30;;;;;;;23.58;80.10;95879.53;4917694;29;20257;-56
2022/09/14 09:12:53;;;;;;;3.47;2.28;;;;;;;23.61;79.06;95866.38;4917890;29;20215;-55
2022/09/14 09:15:22;;;;;;;6.25;2.45;;;;;;;23.67;80.56;95860.00;4917991;29;20452;-57
2022/09/14 09:17:53;;;;;;;2.28;2.08;;;;;;;23.69;79.33;95871.41;4917721;29;20208;-54
2022/09/14 09:20:24;;;;;;;3.42;2.33;;;;;;;23.62;77.28;95862.63;4918163;29;20228;-55
2022/09/14 09:23:07;;;;;;;4.72;2.13;;;;;;;23.67;77.00;95867.28;4919360;29;20284;-56
2022/09/14 09:25:46;;;;;;;5.25;2.40;;;;;;;23.68;78.36;95867.03;4919337;29;20211;-54
2022/09/14 09:28:13;;;;;;;6.00;2.10;;;;;;;23.73;77.24;95855.53;4917759;29;20195;-56
2022/09/14 09:30:40;;;;;;;2.75;2.10;;;;;;;23.79;77.89;95860.75;4917753;29;20311;-57
2022/09/14 09:33:07;;;;;;;4.10;2.45;;;;;;;23.86;76.76;95867.88;4917796;29;20267;-55
2022/09/14 09:35:35;;;;;;;5.32;2.10;;;;;;;23.90;76.42;95864.44;4917747;29;20299;-56
2022/09/14 09:38:01;;;;;;;5.97;2.53;;;;;;;23.91;75.81;95851.78;4916173;29;20601;-54
2022/09/14 09:40:34;;;;;;;2.90;2.03;;;;;;;23.94;75.31;95859.38;4907030;29;20239;-55
2022/09/14 09:43:09;;;;;;;4.25;2.22;;;;;;;23.90;74.74;95840.16;4917712;29;20247;-55
2022/09/14 09:45:54;;;;;;;5.85;1.98;;;;;;;23.88;75.87;95838.75;4920932;29;20652;-55
2022/09/14 09:48:23;;;;;;;6.15;2.22;;;;;;;23.86;75.12;95832.78;4908785;29;20302;-55
2022/09/14 09:50:56;;;;;;;4.20;2.47;;;;;;;23.85;75.40;95833.81;4921183;29;20310;-55
2022/09/14 09:53:24;;;;;;;4.28;2.33;;;;;;;23.80;75.79;95821.09;4921294;29;20290;-56
2022/09/14 09:55:51;;;;;;;3.15;2.15;;;;;;;23.72;76.70;95819.59;4922452;29;20299;-56
2022/09/14 09:58:22;;;;;;;4.95;2.20;;;;;;;23.63;77.44;95826.44;4923148;29;20307;-55
2022/09/14 10:00:56;;;;;;;5.40;2.40;;;;;;;23.68;78.13;95831.94;4922349;29;20641;-56
2022/09/14 10:03:28;;;;;;;4.28;2.20;;;;;;;23.64;77.35;95811.09;4922254;29;20207;-56
2022/09/14 10:06:07;;;;;;;3.70;1.80;;;;;;;23.52;78.42;95808.47;4921621;29;20204;-55
2022/09/14 10:08:34;;;;;;;3.30;2.22;;;;;;;23.64;77.70;95816.47;4921839;29;20196;-55
2022/09/14 10:11:02;;;;;;;4.25;2.30;;;;;;;23.69;77.01;95817.41;4921368;29;20240;-56
2022/09/14 10:13:31;;;;;;;3.67;3.28;;;;;;;23.73;77.87;95815.03;4921267;29;20212;-55
2022/09/14 10:16:16;;;;;;;3.05;2.45;;;;;;;23.79;77.46;95812.16;4920783;29;20254;-56
2022/09/14 10:18:44;;;;;;;2.47;2.13;;;;;;;23.76;77.79;95804.56;4907766;29;20701;-56
2022/09/14 10:21:12;;;;;;;4.85;2.22;;;;;;;23.84;77.11;95789.00;4920656;29;20295;-55
2022/09/14 10:23:39;;;;;;;4.43;2.33;;;;;;;23.95;78.94;95790.81;4920610;29;20211;-56
2022/09/14 10:26:26;;;;;;;3.80;2.17;;;;;;;24.12;77.58;95799.69;4920430;29;20262;-57
2022/09/14 10:28:52;;;;;;;2.55;1.90;;;;;;;24.28;74.40;95794.28;4888749;29;20224;-57
2022/09/14 10:31:27;;;;;;;4.47;2.28;;;;;;;24.26;73.86;95784.81;4914371;29;20323;-55
2022/09/14 10:33:55;;;;;;;3.58;2.35;;;;;;;24.25;72.90;95788.56;4920580;29;20305;-55
2022/09/14 10:36:26;;;;;;;3.55;1.92;;;;;;;24.18;73.97;95787.91;4920399;29;20229;-56
2022/09/14 10:38:54;;;;;;;1.67;1.58;;;;;;;24.15;75.69;95780.31;4920426;29;20200;-55
2022/09/14 10:41:27;;;;;;;3.90;2.08;;;;;;;24.13;73.68;95766.22;4920273;29;20204;-56
2022/09/14 10:44:06;;;;;;;6.50;2.03;;;;;;;24.04;75.83;95776.63;4919881;29;20250;-55
2022/09/14 10:46:39;;;;;;;5.32;2.40;;;;;;;23.97;73.76;95792.19;4903311;29;20254;-55
2022/09/14 10:49:27;;;;;;;4.75;2.00;;;;;;;23.89;75.62;95786.38;4920051;29;20298;-55
2022/09/14 10:52:02;;;;;;;5.45;3.38;;;;;;;23.84;75.71;95772.81;4909807;29;20292;-55
2022/09/14 10:54:54;;;;;;;3.05;2.70;;;;;;;23.83;75.97;95757.66;4920093;29;20294;-57
2022/09/14 10:57:29;;;;;;;2.97;2.45;;;;;;;23.82;74.67;95756.84;4920081;29;20236;-54
2022/09/14 10:59:58;;;;;;;5.63;2.33;;;;;;;23.77;75.40;95760.28;4919189;29;20202;-54
2022/09/14 11:02:47;;;;;;;4.35;2.30;;;;;;;23.86;74.71;95763.38;4919591;29;20653;-57
2022/09/14 11:05:19;;;;;;;6.15;2.30;;;;;;;23.96;75.07;95762.72;4919911;29;20231;-56
2022/09/14 11:07:54;;;;;;;4.20;1.80;;;;;;;23.95;74.67;95753.78;4919492;29;20287;-55
2022/09/14 11:10:27;;;;;;;4.32;2.38;;;;;;;24.01;74.05;95760.09;4919468;29;20328;-54
2022/09/14 11:13:07;;;;;;;4.82;2.55;;;;;;;24.03;74.58;95750.66;4919385;29;20223;-55
2022/09/14 11:15:39;;;;;;;3.47;2.25;;;;;;;24.04;76.75;95749.63;4919696;29;20298;-54
2022/09/14 11:18:17;;;;;;;4.82;2.45;;;;;;;24.06;76.66;95744.75;4919702;29;20255;-56
2022/09/14 11:21:00;;;;;;;4.72;2.35;;;;;;;24.09;76.34;95749.66;4919561;29;20608;-55
2022/09/14 11:23:40;;;;;;;4.78;2.60;;;;;;;24.12;74.42;95743.78;4919557;29;20642;-57
2022/09/14 11:26:10;;;;;;;6.40;2.28;;;;;;;24.19;75.36;95743.63;4919571;29;20211;-56
2022/09/14 11:28:40;;;;;;;5.00;2.13;;;;;;;24.20;75.88;95756.06;4919421;29;20238;-55
2022/09/14 11:31:11;;;;;;;3.30;2.08;;;;;;;24.21;74.04;95758.53;4919354;29;20228;-55
2022/09/14 11:33:40;;;;;;;3.50;2.25;;;;;;;24.16;73.95;95755.75;4919548;29;20314;-54
2022/09/14 11:36:12;;;;;;;2.30;2.10;;;;;;;24.16;73.66;95754.94;4920849;29;20218;-55
2022/09/14 11:38:45;;;;;;;3.63;2.33;;;;;;;24.15;74.71;95753.31;4921180;29;20873;-55
2022/09/14 11:41:18;;;;;;;2.65;2.25;;;;;;;24.16;76.25;95760.34;4920624;29;20279;-55
2022/09/14 11:43:48;;;;;;;5.90;2.53;;;;;;;24.14;74.25;95762.47;4918924;29;20326;-55